< < Back
Terminal Aerodrome Forecast


Current Version              Previous Versions:   1  2  3  4  5  6  7  8  9  

Terminal Aerodrome Forecast

270
FTUS42 KTAE 291727
TAFABY
TAF
KABY 291727Z 2918/3018 07009KT P6SM SCT035=



Latest METAR

543
SAUS70 KWBC 292300 RRG
MTRABY
METAR KABY 292253Z 03009KT 10SM CLR 32/21 A2998 RMK AO2 SLP150
T03170206


USA.gov is the U.S. government's official web portal to all federal, state and local government web resources and services.